.
WxDataArchive / Data Records for 2010-05-21
2010-05-20 May 2010 2010-05-22

Data Records for Friday, 21 May 2010

Time	Temp	Chill	HIndex	Humid	Dewpt	 Wind 	HiWind	WindDir	Rain 	Barom 
-----	----	-----	------	-----	-----	------	------	-------	-----	----- 
00:00	63.7	63.7	63.7	65	51.7	1	3	135	0.00	30.021 
00:05	64.3	64.3	64.3	62	51.0	2	4	112	0.00	30.021 
00:10	64.7	64.7	64.7	62	51.4	0	2	112	0.00	30.021 
00:15	64.7	64.7	64.7	62	51.4	0	3	135	0.00	30.008 
00:20	64.5	64.5	64.5	61	50.7	1	2	135	0.01	30.008 
00:25	64.3	64.3	64.3	62	51.0	0	2	135	0.00	30.008 
00:30	64.2	64.2	64.2	62	50.9	0	2	68	0.00	30.004 
00:35	64.0	64.0	64.0	63	51.1	0	3	68	0.00	30.004 
00:40	63.9	63.9	63.9	65	51.9	0	2	68	0.00	30.004 
00:45	63.7	63.7	63.7	65	51.7	1	3	68	0.00	29.994 
00:50	63.5	63.5	63.5	65	51.5	0	2	68	0.00	29.994 
00:55	63.5	63.5	63.5	66	51.9	0	2	68	0.00	29.994 
01:00	63.4	63.4	63.4	67	52.2	0	1	68	0.00	29.990 
01:05	63.4	63.4	63.4	68	52.6	0	1	68	0.00	29.990 
01:10	63.2	63.2	63.2	68	52.5	0	1	68	0.00	29.990 
01:15	63.1	63.1	63.1	69	52.8	0	2	68	0.00	29.983 
01:20	62.9	62.9	62.9	70	53.0	0	1	68	0.00	29.983 
01:25	62.7	62.7	62.7	70	52.8	0	2	68	0.00	29.983 
01:30	62.7	62.7	62.7	70	52.8	0	2	68	0.00	29.973 
01:35	62.7	62.7	62.7	70	52.8	0	1	68	0.00	29.973 
01:40	62.7	62.7	62.7	69	52.4	0	1	68	0.00	29.973 
01:45	62.9	62.9	62.9	69	52.6	0	2	68	0.00	29.973 
01:50	63.2	63.2	63.2	68	52.5	1	3	68	0.00	29.973 
01:55	63.2	63.2	63.2	69	52.9	1	2	68	0.00	29.973 
02:00	63.4	63.4	63.4	68	52.6	1	3	68	0.00	29.973 
02:05	63.4	63.4	63.4	68	52.6	1	3	68	0.00	29.973 
02:10	63.7	63.7	63.7	67	52.5	2	5	90	0.00	29.973 
02:15	63.9	63.9	63.9	67	52.7	2	4	90	0.00	29.970 
02:20	64.2	64.2	64.2	68	53.4	0	2	68	0.00	29.970 
02:25	64.2	64.2	64.2	68	53.4	0	2	68	0.00	29.970 
02:30	64.3	64.3	64.3	68	53.5	1	4	68	0.00	29.969 
02:35	64.3	64.3	64.3	68	53.5	0	2	90	0.00	29.969 
02:40	64.5	64.5	64.5	69	54.1	0	2	90	0.00	29.969 
02:45	64.5	64.5	64.5	69	54.1	0	1	90	0.00	29.977 
02:50	64.3	64.3	64.3	69	53.9	0	1	90	0.00	29.977 
02:55	64.3	64.3	64.3	69	53.9	0	1	90	0.00	29.977 
03:00	64.3	64.3	64.3	70	54.3	0	2	90	0.00	29.988 
03:05	64.2	64.2	64.2	72	55.0	0	1	90	0.00	29.988 
03:10	63.9	63.9	63.9	74	55.4	0	1	90	0.00	29.988 
03:15	63.7	63.7	63.7	75	55.6	0	2	90	0.00	29.987 
03:20	63.4	63.4	63.4	76	55.7	0	2	90	0.00	29.987 
03:25	63.2	63.2	63.2	77	55.9	0	1	90	0.00	29.987 
03:30	63.1	63.1	63.1	77	55.8	0	1	90	0.00	29.982 
03:35	62.9	62.9	62.9	78	55.9	0	0	---	0.00	29.982 
03:40	62.9	62.9	62.9	79	56.3	0	0	---	0.00	29.982 
03:45	62.7	62.7	62.7	80	56.4	0	0	---	0.01	29.988 
03:50	62.6	62.6	62.6	82	57.0	0	2	90	0.00	29.988 
03:55	62.3	62.3	62.3	82	56.7	0	3	112	0.01	29.988 
04:00	62.1	62.1	62.1	84	57.2	0	0	---	0.01	29.991 
04:05	61.8	61.8	61.8	85	57.2	0	2	112	0.01	29.991 
04:10	61.6	61.6	61.6	86	57.4	0	1	112	0.01	29.991 
04:15	61.3	61.3	61.3	87	57.4	0	1	112	0.01	30.001 
04:20	61.2	61.2	61.2	88	57.6	0	1	112	0.00	30.001 
04:25	61.0	61.0	61.0	89	57.7	0	1	112	0.02	30.001 
04:30	60.9	60.9	60.9	89	57.6	0	2	112	0.02	30.003 
04:35	60.7	60.7	60.7	90	57.7	0	4	112	0.01	30.003 
04:40	60.7	60.7	60.7	91	58.1	0	4	90	0.02	30.003 
04:45	60.7	60.7	60.7	91	58.1	0	2	90	0.01	30.000 
04:50	60.7	60.7	60.7	92	58.4	0	2	90	0.02	30.000 
04:55	60.5	60.5	60.5	92	58.2	0	2	90	0.02	30.000 
05:00	60.5	60.5	60.5	93	58.5	1	3	90	0.03	29.991 
05:05	60.5	60.5	60.5	93	58.5	0	2	90	0.02	29.991 
05:10	60.5	60.5	60.5	93	58.5	1	3	90	0.01	29.991 
05:15	60.5	60.5	60.5	94	58.8	1	3	90	0.00	29.990 
05:20	60.5	60.5	60.5	94	58.8	1	4	90	0.00	29.990 
05:25	60.5	60.5	60.5	94	58.8	2	4	90	0.00	29.990 
05:30	60.4	60.4	60.4	94	58.7	1	3	90	0.00	29.991 
05:35	60.4	60.4	60.4	94	58.7	1	3	90	0.00	29.991 
05:40	60.4	60.4	60.4	95	59.0	1	3	112	0.00	29.991 
05:45	60.4	60.4	60.4	95	59.0	1	3	112	0.00	29.990 
05:50	60.4	60.4	60.4	95	59.0	1	4	112	0.00	29.990 
05:55	60.4	60.4	60.4	95	59.0	2	5	90	0.00	29.990 
06:00	60.4	60.4	60.4	95	59.0	2	5	90	0.00	29.987 
06:05	60.4	60.4	60.4	95	59.0	3	9	90	0.00	29.987 
06:10	60.2	60.2	60.2	95	58.8	3	6	90	0.00	29.987 
06:15	60.2	60.2	60.2	95	58.8	2	6	68	0.00	29.978 
06:20	60.1	60.1	60.1	96	59.0	2	5	90	0.00	29.978 
06:25	60.1	60.1	60.1	96	59.0	3	6	90	0.00	29.978 
06:30	60.1	60.1	60.1	96	59.0	3	6	90	0.00	29.977 
06:35	59.9	59.9	59.9	96	58.8	2	5	90	0.00	29.977 
06:40	59.9	59.9	59.9	96	58.8	1	4	90	0.00	29.977 
06:45	59.9	59.9	59.9	96	58.8	2	6	68	0.00	29.975 
06:50	59.9	59.9	59.9	96	58.8	2	4	112	0.00	29.975 
06:55	59.9	59.9	59.9	96	58.8	3	5	112	0.00	29.975 
07:00	59.8	59.8	59.8	96	58.7	2	5	90	0.00	29.975 
07:05	59.8	59.8	59.8	96	58.7	2	5	90	0.00	29.975 
07:10	59.8	59.8	59.8	96	58.7	2	5	68	0.00	29.975 
07:15	59.8	59.8	59.8	96	58.7	2	4	68	0.00	29.979 
07:20	59.8	59.8	59.8	96	58.7	2	5	68	0.00	29.979 
07:25	59.8	59.8	59.8	96	58.7	3	5	90	0.00	29.979 
07:30	59.8	59.8	59.8	96	58.7	3	6	90	0.00	29.979 
07:35	59.9	59.9	59.9	96	58.8	1	4	90	0.00	29.979 
07:40	59.9	59.9	59.9	96	58.8	2	4	90	0.00	29.979 
07:45	59.9	59.9	59.9	96	58.8	2	4	68	0.00	29.980 
07:50	59.9	59.9	59.9	96	58.8	2	4	68	0.00	29.980 
07:55	60.1	60.1	60.1	96	59.0	1	3	68	0.00	29.980 
08:00	60.1	60.1	60.1	96	59.0	2	5	68	0.00	29.978 
08:05	60.1	60.1	60.1	96	59.0	2	4	68	0.00	29.978 
08:10	60.2	60.2	60.2	96	59.1	1	2	68	0.00	29.978 
08:15	60.2	60.2	60.2	96	59.1	1	3	68	0.00	29.983 
08:20	60.4	60.4	60.4	96	59.3	1	4	68	0.00	29.983 
08:25	60.4	60.4	60.4	96	59.3	2	5	68	0.00	29.983 
08:30	60.4	60.4	60.4	96	59.3	2	5	68	0.00	29.982 
08:35	60.4	60.4	60.4	96	59.3	2	6	68	0.00	29.982 
08:40	60.5	60.5	60.5	96	59.4	2	5	68	0.00	29.982 
08:45	60.5	60.5	60.5	96	59.4	0	2	112	0.00	29.988 
08:50	60.5	60.5	60.5	96	59.4	1	4	112	0.00	29.988 
08:55	60.7	60.7	60.7	96	59.6	1	4	68	0.00	29.988 
09:00	60.9	60.9	60.9	96	59.7	1	4	90	0.00	29.984 
09:05	61.0	61.0	61.0	96	59.8	1	4	112	0.00	29.984 
09:10	61.0	61.0	61.0	96	59.8	1	5	112	0.00	29.984 
09:15	61.2	61.2	61.2	96	60.0	1	3	112	0.00	29.982 
09:20	61.2	61.2	61.2	96	60.0	0	2	112	0.00	29.982 
09:25	61.3	61.3	61.3	96	60.1	1	3	90	0.00	29.982 
09:30	61.5	61.5	61.5	96	60.3	1	4	68	0.00	29.980 
09:35	61.6	61.6	61.6	96	60.4	1	4	180	0.00	29.980 
09:40	62.0	62.0	62.0	96	60.8	0	2	180	0.00	29.980 
09:45	62.1	62.1	62.1	96	60.9	1	4	158	0.00	29.974 
09:50	62.1	62.1	62.1	95	60.6	1	3	135	0.00	29.974 
09:55	62.3	62.3	62.3	95	60.8	0	3	135	0.00	29.974 
10:00	62.6	62.6	62.6	95	61.1	1	3	135	0.00	29.973 
10:05	62.7	62.7	62.7	95	61.2	1	3	135	0.00	29.973 
10:10	62.9	62.9	62.9	95	61.4	0	2	135	0.00	29.973 
10:15	63.1	63.1	63.1	95	61.6	1	2	45	0.00	29.971 
10:20	63.1	63.1	63.1	94	61.3	1	5	135	0.00	29.971 
10:25	63.2	63.2	63.2	94	61.4	1	4	135	0.00	29.971 
10:30	63.2	63.2	63.2	93	61.1	2	4	90	0.00	29.965 
10:35	63.7	63.7	63.7	93	61.6	1	4	90	0.00	29.965 
10:40	63.9	63.9	63.9	92	61.5	2	6	90	0.00	29.965 
10:45	64.3	64.3	64.3	92	61.9	2	6	90	0.00	29.962 
10:50	64.7	64.7	64.7	91	62.0	2	6	68	0.00	29.962 
10:55	65.3	65.3	65.3	90	62.3	2	5	90	0.00	29.962 
11:00	65.8	65.8	65.8	88	62.1	2	5	90	0.00	29.957 
11:05	66.6	66.6	66.6	88	62.9	0	3	112	0.00	29.957 
11:10	66.9	66.9	66.9	86	62.6	1	9	112	0.00	29.957 
11:15	67.1	67.1	67.1	84	62.1	2	7	90	0.00	29.953 
11:20	67.4	67.4	67.4	84	62.4	2	3	90	0.00	29.953 
11:25	67.8	67.8	67.8	84	62.8	2	7	90	0.00	29.953 
11:30	68.3	68.3	68.3	83	62.9	1	6	112	0.00	29.948 
11:35	68.4	68.4	68.4	83	63.0	2	5	112	0.00	29.948 
11:40	68.4	68.4	68.4	81	62.3	3	9	90	0.00	29.948 
11:45	68.4	68.4	68.4	81	62.3	2	5	90	0.00	29.948 
11:50	68.6	68.6	68.6	81	62.5	2	4	90	0.00	29.948 
11:55	68.6	68.6	68.6	81	62.5	2	5	112	0.00	29.948 
12:00	68.8	68.8	68.8	81	62.7	2	5	90	0.00	29.946 
12:05	69.3	69.3	69.3	81	63.2	2	5	90	0.00	29.946 
12:10	69.3	69.3	69.3	79	62.5	2	7	112	0.00	29.946 
12:15	69.4	69.4	69.4	79	62.6	1	5	90	0.00	29.948 
12:20	69.3	69.3	69.3	79	62.5	2	6	90	0.00	29.948 
12:25	69.3	69.3	69.3	79	62.5	2	6	90	0.00	29.948 
12:30	69.4	69.4	69.4	80	63.0	2	5	112	0.00	29.945 
12:35	69.4	69.4	69.4	80	63.0	1	4	112	0.00	29.945 
12:40	69.8	69.8	69.8	81	63.7	2	4	45	0.00	29.945 
12:45	70.3	70.3	70.3	81	64.2	1	3	112	0.00	29.938 
12:50	70.6	70.6	70.6	78	63.4	2	5	112	0.00	29.938 
12:55	70.8	70.8	70.8	78	63.6	2	7	135	0.00	29.938 
13:00	70.6	70.6	70.6	78	63.4	2	6	68	0.00	29.932 
13:05	70.6	70.6	70.6	78	63.4	1	4	90	0.00	29.932 
13:10	70.6	70.6	70.6	77	63.0	2	5	90	0.00	29.932 
13:15	70.6	70.6	70.6	77	63.0	2	4	90	0.00	29.928 
13:20	70.6	70.6	70.6	78	63.4	2	4	112	0.00	29.928 
13:25	70.8	70.8	70.8	78	63.6	1	4	90	0.00	29.928 
13:30	70.6	70.6	70.6	79	63.8	2	4	112	0.00	29.925 
13:35	70.8	70.8	70.8	79	64.0	1	7	45	0.00	29.925 
13:40	70.6	70.6	70.6	79	63.8	2	5	112	0.00	29.925 
13:45	70.8	70.8	70.8	80	64.3	2	4	112	0.00	29.921 
13:50	71.1	71.1	71.1	78	63.9	3	5	90	0.00	29.921 
13:55	71.3	71.3	71.3	78	64.1	2	7	68	0.00	29.921 
14:00	71.1	71.1	71.1	77	63.5	3	7	90	0.00	29.914 
14:05	71.6	71.6	71.6	79	64.7	2	6	112	0.00	29.914 
14:10	72.7	72.7	72.7	76	64.7	3	7	112	0.00	29.914 
14:15	72.8	72.8	72.8	74	64.0	3	5	112	0.00	29.908 
14:20	73.0	73.0	73.0	73	63.8	3	10	112	0.00	29.908 
14:25	73.5	73.5	73.5	73	64.3	3	10	90	0.00	29.908 
14:30	73.9	73.9	73.9	71	63.9	1	5	112	0.00	29.904 
14:35	73.5	73.5	73.5	69	62.7	4	10	90	0.00	29.904 
14:40	73.2	73.2	73.2	70	62.8	2	7	45	0.00	29.904 
14:45	73.2	73.2	73.2	70	62.8	2	5	135	0.00	29.905 
14:50	73.3	73.3	73.3	71	63.3	1	4	180	0.00	29.905 
14:55	73.5	73.5	73.5	70	63.1	2	7	90	0.00	29.905 
15:00	73.5	73.5	73.5	71	63.5	3	15	90	0.00	29.895 
15:05	73.3	73.3	73.3	71	63.3	3	6	90	0.00	29.895 
15:10	73.0	73.0	73.0	73	63.8	4	7	90	0.00	29.895 
15:15	72.8	72.8	72.8	73	63.6	2	6	90	0.00	29.893 
15:20	72.7	72.7	72.7	73	63.5	3	10	90	0.00	29.893 
15:25	72.8	72.8	72.8	73	63.6	3	10	68	0.00	29.893 
15:30	73.2	73.2	73.2	73	64.0	2	6	90	0.00	29.887 
15:35	73.2	73.2	73.2	73	64.0	2	7	68	0.00	29.887 
15:40	72.8	72.8	72.8	72	63.2	3	8	90	0.00	29.887 
15:45	72.7	72.7	72.7	74	63.9	2	7	90	0.00	29.880 
15:50	73.0	73.0	73.0	74	64.2	2	6	90	0.00	29.880 
15:55	73.2	73.2	73.2	72	63.6	3	6	112	0.00	29.880 
16:00	73.0	73.0	73.0	73	63.8	3	11	112	0.00	29.873 
16:05	73.5	73.5	73.5	73	64.3	3	7	90	0.00	29.873 
16:10	73.7	73.7	73.7	73	64.5	4	10	90	0.00	29.873 
16:15	73.2	73.2	73.2	73	64.0	4	9	90	0.00	29.871 
16:20	72.7	72.7	72.7	73	63.5	4	8	90	0.00	29.871 
16:25	72.3	72.3	72.3	75	63.9	3	7	112	0.00	29.871 
16:30	71.8	71.8	71.8	76	63.8	2	7	112	0.00	29.866 
16:35	71.6	71.6	71.6	75	63.2	3	9	90	0.00	29.866 
16:40	71.5	71.5	71.5	75	63.1	3	8	90	0.00	29.866 
16:45	71.1	71.1	71.1	76	63.1	2	6	112	0.00	29.884 
16:50	70.8	70.8	70.8	77	63.2	3	7	68	0.00	29.884 
16:55	70.3	70.3	70.3	78	63.1	3	10	90	0.00	29.884 
17:00	69.9	69.9	69.9	79	63.1	2	5	90	0.00	29.884 
17:05	69.6	69.6	69.6	80	63.1	2	5	135	0.00	29.884 
17:10	69.4	69.4	69.4	81	63.3	3	6	90	0.00	29.884 
17:15	69.1	69.1	69.1	82	63.4	2	5	112	0.00	29.887 
17:20	68.8	68.8	68.8	83	63.4	1	5	112	0.00	29.887 
17:25	68.6	68.6	68.6	83	63.2	1	4	90	0.00	29.887 
17:30	68.4	68.4	68.4	84	63.4	1	4	90	0.00	29.884 
17:35	68.3	68.3	68.3	84	63.3	0	2	135	0.00	29.884 
17:40	68.1	68.1	68.1	85	63.4	0	1	135	0.01	29.884 
17:45	67.1	67.1	67.1	87	63.1	2	9	270	0.18	29.903 
17:50	66.0	66.0	66.0	88	62.3	0	3	248	0.17	29.903 
17:55	65.0	65.0	65.0	87	61.0	2	8	90	0.23	29.903 
18:00	64.3	64.3	64.3	89	61.0	1	5	112	0.17	29.894 
18:05	63.7	63.7	63.7	91	61.0	0	1	112	0.01	29.894 
18:10	63.4	63.4	63.4	91	60.7	1	2	112	0.00	29.894 
18:15	63.2	63.2	63.2	92	60.8	1	3	112	0.00	29.891 
18:20	63.4	63.4	63.4	93	61.3	0	1	112	0.00	29.891 
18:25	63.4	63.4	63.4	93	61.3	1	3	112	0.00	29.891 
18:30	63.4	63.4	63.4	93	61.3	0	2	112	0.00	29.889 
18:35	63.4	63.4	63.4	93	61.3	0	1	112	0.00	29.889 
18:40	63.5	63.5	63.5	94	61.7	0	1	112	0.00	29.889 
18:45	63.9	63.9	63.9	94	62.1	1	3	112	0.00	29.883 
18:50	63.9	63.9	63.9	94	62.1	0	2	112	0.00	29.883 
18:55	63.9	63.9	63.9	94	62.1	0	2	112	0.02	29.883 
19:00	63.9	63.9	63.9	94	62.1	0	2	112	0.01	29.874 
19:05	64.0	64.0	64.0	95	62.5	0	1	112	0.01	29.874 
19:10	64.0	64.0	64.0	95	62.5	0	0	---	0.00	29.874 
19:15	64.2	64.2	64.2	95	62.7	1	2	112	0.00	29.874 
19:20	64.3	64.3	64.3	95	62.8	0	2	112	0.00	29.874 
19:25	64.3	64.3	64.3	95	62.8	0	1	112	0.00	29.874 
19:30	64.3	64.3	64.3	95	62.8	0	1	112	0.06	29.888 
19:35	64.2	64.2	64.2	95	62.7	0	1	112	0.08	29.888 
19:40	64.0	64.0	64.0	95	62.5	0	3	112	0.01	29.888 
19:45	63.9	63.9	63.9	95	62.4	1	3	112	0.01	29.887 
19:50	63.9	63.9	63.9	95	62.4	1	5	112	0.01	29.887 
19:55	63.7	63.7	63.7	95	62.2	0	2	112	0.01	29.887 
20:00	63.5	63.5	63.5	95	62.0	2	8	112	0.01	29.889 
20:05	62.3	62.3	62.3	94	60.5	1	3	112	0.01	29.889 
20:10	61.5	61.5	61.5	94	59.8	1	4	90	0.04	29.889 
20:15	61.0	61.0	61.0	94	59.3	0	2	90	0.01	29.893 
20:20	60.7	60.7	60.7	94	59.0	0	1	90	0.01	29.893 
20:25	60.7	60.7	60.7	94	59.0	0	0	---	0.00	29.893 
20:30	60.9	60.9	60.9	95	59.5	0	0	---	0.00	29.887 
20:35	61.2	61.2	61.2	95	59.8	0	0	---	0.00	29.887 
20:40	61.5	61.5	61.5	95	60.1	0	0	---	0.00	29.887 
20:45	61.6	61.6	61.6	95	60.2	0	0	---	0.00	29.888 
20:50	61.5	61.5	61.5	95	60.1	0	0	---	0.00	29.888 
20:55	61.3	61.3	61.3	95	59.9	0	2	315	0.00	29.888 
21:00	61.5	61.5	61.5	95	60.1	0	3	68	0.00	29.886 
21:05	61.6	61.6	61.6	95	60.2	1	2	68	0.00	29.886 
21:10	62.1	62.1	62.1	96	60.9	0	4	68	0.00	29.886 
21:15	62.7	62.7	62.7	96	61.5	0	4	68	0.00	29.881 
21:20	63.2	63.2	63.2	96	62.0	1	4	90	0.02	29.881 
21:25	63.4	63.4	63.4	96	62.2	2	5	90	0.00	29.881 
21:30	63.4	63.4	63.4	96	62.2	1	2	68	0.00	29.890 
21:35	63.2	63.2	63.2	95	61.7	1	4	68	0.00	29.890 
21:40	62.4	62.4	62.4	95	60.9	1	4	225	0.00	29.890 
21:45	62.1	62.1	62.1	95	60.6	1	2	315	0.00	29.900 
21:50	62.1	62.1	62.1	95	60.6	1	3	22	0.01	29.900 
21:55	62.1	62.1	62.1	95	60.6	0	1	45	0.00	29.900 
22:00	61.8	61.8	61.8	95	60.3	0	2	45	0.00	29.904 
22:05	61.6	61.6	61.6	95	60.2	0	2	45	0.00	29.904 
22:10	61.8	61.8	61.8	95	60.3	0	2	45	0.00	29.904 
22:15	61.8	61.8	61.8	95	60.3	0	0	---	0.00	29.898 
22:20	61.8	61.8	61.8	95	60.3	0	0	---	0.00	29.898 
22:25	61.8	61.8	61.8	95	60.3	0	2	45	0.00	29.898 
22:30	61.8	61.8	61.8	95	60.3	0	1	45	0.00	29.896 
22:35	61.8	61.8	61.8	96	60.6	1	3	45	0.02	29.896 
22:40	61.8	61.8	61.8	96	60.6	0	2	45	0.00	29.896 
22:45	61.8	61.8	61.8	96	60.6	1	3	45	0.01	29.899 
22:50	61.8	61.8	61.8	96	60.6	1	3	45	0.00	29.899 
22:55	61.8	61.8	61.8	96	60.6	1	3	45	0.00	29.899 
23:00	61.8	61.8	61.8	96	60.6	0	0	---	0.00	29.892 
23:05	62.0	62.0	62.0	96	60.8	0	2	45	0.00	29.892 
23:10	61.8	61.8	61.8	96	60.6	0	1	45	0.00	29.892 
23:15	61.8	61.8	61.8	96	60.6	0	0	---	0.00	29.885 
23:20	61.8	61.8	61.8	96	60.6	0	1	45	0.00	29.885 
23:25	61.8	61.8	61.8	96	60.6	0	1	45	0.00	29.885 
23:30	61.8	61.8	61.8	96	60.6	0	0	---	0.00	29.878 
23:35	61.8	61.8	61.8	96	60.6	0	2	45	0.00	29.878 
23:40	62.1	62.1	62.1	96	60.9	0	0	---	0.00	29.878 
23:45	62.3	62.3	62.3	96	61.1	0	0	---	0.00	29.883 
23:50	62.3	62.3	62.3	96	61.1	0	1	45	0.00	29.883 
23:55	62.1	62.1	62.1	96	60.9	0	1	45	0.00	29.883 

CoCoRaHS
IN-AL-39
A2 Web Hosting
Creative Commons License
GoDaddy
search engine by freefind advanced

loaded 2018-11-13 21:15:02 • last modified 2010-11-18 10:43:29
Privacy PolicyDisclaimer
• wx.awcolley.com is powered by PmWiki v.2002016 •
• all content (unless otherwise noted) © 2018 A W Colley